createdAt,value
2022-12-08T00:01:39.692Z,98.17
2022-12-08T00:04:27.754Z,98.01
2022-12-08T00:07:34.529Z,97.78
2022-12-08T00:10:48.049Z,97.80
2022-12-08T00:13:30.615Z,97.65
2022-12-08T00:16:18.546Z,97.51
2022-12-08T00:19:06.122Z,97.53
2022-12-08T00:21:55.402Z,97.40
2022-12-08T00:24:47.627Z,97.64
2022-12-08T00:27:35.588Z,97.96
2022-12-08T00:30:23.317Z,98.07
2022-12-08T00:33:12.366Z,98.08
2022-12-08T00:36:09.884Z,98.06
2022-12-08T00:38:58.843Z,97.82
2022-12-08T00:42:05.114Z,98.01
2022-12-08T00:44:54.926Z,98.17
2022-12-08T00:47:42.767Z,98.36
2022-12-08T00:50:30.627Z,98.07
2022-12-08T00:53:18.043Z,98.00
2022-12-08T00:56:06.115Z,97.88
2022-12-08T00:58:54.080Z,97.61
2022-12-08T01:01:45.495Z,97.50
2022-12-08T01:04:33.543Z,97.41
2022-12-08T01:07:21.466Z,97.42
2022-12-08T01:10:09.775Z,97.37
2022-12-08T01:12:59.169Z,97.41
2022-12-08T01:15:47.005Z,97.48
2022-12-08T01:18:35.556Z,97.76
2022-12-08T01:21:23.247Z,97.91
2022-12-08T01:24:19.380Z,97.92
2022-12-08T01:27:08.184Z,98.19
2022-12-08T01:29:56.204Z,98.53
2022-12-08T01:32:44.353Z,98.66
2022-12-08T01:35:34.063Z,99.04
2022-12-08T01:38:22.886Z,98.96
2022-12-08T01:41:16.334Z,98.97
2022-12-08T01:44:08.356Z,99.07
2022-12-08T01:46:56.651Z,99.50
2022-12-08T01:49:44.565Z,99.69
2022-12-08T01:52:50.355Z,99.74
2022-12-08T01:55:52.603Z,99.73
2022-12-08T01:58:49.167Z,99.56
2022-12-08T02:01:36.749Z,99.36
2022-12-08T02:04:24.501Z,99.21
2022-12-08T02:07:14.030Z,98.89
2022-12-08T02:10:04.318Z,98.65
2022-12-08T02:12:56.310Z,98.56
2022-12-08T02:16:35.492Z,98.42
2022-12-08T02:20:06.582Z,98.32
2022-12-08T02:23:32.111Z,97.81
2022-12-08T02:26:56.998Z,97.62
2022-12-08T02:30:20.041Z,97.39
2022-12-08T02:33:45.297Z,97.50
2022-12-08T02:36:44.007Z,97.32
2022-12-08T02:40:13.231Z,97.38
2022-12-08T02:43:37.473Z,97.17
2022-12-08T02:46:34.469Z,96.82
2022-12-08T02:49:21.904Z,96.94
2022-12-08T02:52:12.522Z,96.95
2022-12-08T02:55:09.125Z,96.94
2022-12-08T02:58:38.957Z,96.88
2022-12-08T03:01:29.694Z,96.54
2022-12-08T03:04:40.206Z,96.44
2022-12-08T03:07:37.506Z,96.44
2022-12-08T03:11:09.319Z,96.30
2022-12-08T03:14:02.636Z,96.37
2022-12-08T03:16:58.645Z,96.33
2022-12-08T03:19:49.047Z,96.33
2022-12-08T03:22:39.633Z,96.58
2022-12-08T03:25:32.394Z,96.57
2022-12-08T03:28:20.414Z,96.70
2022-12-08T03:31:12.370Z,96.95
2022-12-08T03:34:02.914Z,97.13
2022-12-08T03:36:50.636Z,97.29
2022-12-08T03:39:38.351Z,97.65
2022-12-08T03:42:26.118Z,98.10
2022-12-08T03:45:14.034Z,98.47
2022-12-08T03:48:01.574Z,98.80
2022-12-08T03:50:49.302Z,99.00
2022-12-08T03:53:37.839Z,99.33
2022-12-08T03:56:34.525Z,99.38
2022-12-08T03:59:22.352Z,99.50
2022-12-08T04:02:10.175Z,99.38
2022-12-08T04:04:57.900Z,99.29
2022-12-08T04:07:45.399Z,99.25
2022-12-08T04:10:33.187Z,99.44
2022-12-08T04:13:20.885Z,99.59
2022-12-08T04:16:09.187Z,99.73
2022-12-08T04:18:57.071Z,99.67
2022-12-08T04:21:44.726Z,99.41
2022-12-08T04:24:32.601Z,99.28
2022-12-08T04:27:19.944Z,99.45
2022-12-08T04:30:08.504Z,99.21
2022-12-08T04:32:56.314Z,99.07
2022-12-08T04:35:44.245Z,98.77
2022-12-08T04:38:33.702Z,98.55
2022-12-08T04:41:21.395Z,98.06
2022-12-08T04:44:09.297Z,98.19
2022-12-08T04:46:57.122Z,98.28
2022-12-08T04:49:48.187Z,98.15
2022-12-08T04:52:36.689Z,98.39
2022-12-08T04:55:24.413Z,98.30
2022-12-08T04:58:17.696Z,98.11
2022-12-08T05:01:07.347Z,98.47
2022-12-08T05:03:54.879Z,98.43
2022-12-08T05:06:42.759Z,98.39
2022-12-08T05:09:30.838Z,97.83
2022-12-08T05:12:18.503Z,97.34
2022-12-08T05:15:07.310Z,96.71
2022-12-08T05:17:56.487Z,96.26
2022-12-08T05:20:44.626Z,96.20
2022-12-08T05:23:32.987Z,96.06
2022-12-08T05:26:20.725Z,95.92
2022-12-08T05:29:08.447Z,96.02
2022-12-08T05:31:55.945Z,96.01
2022-12-08T05:34:43.542Z,96.02
2022-12-08T05:37:31.439Z,96.25
2022-12-08T05:40:19.226Z,96.48
2022-12-08T05:43:07.599Z,96.73
2022-12-08T05:45:55.413Z,96.84
2022-12-08T05:48:43.632Z,97.24
2022-12-08T05:51:31.806Z,97.43
2022-12-08T05:54:19.538Z,97.94
2022-12-08T05:57:07.173Z,98.08
2022-12-08T05:59:54.557Z,98.59
2022-12-08T06:02:42.463Z,98.53
2022-12-08T06:05:33.223Z,98.39
2022-12-08T06:08:20.930Z,98.30
2022-12-08T06:11:09.075Z,97.69
2022-12-08T06:13:57.875Z,97.39
2022-12-08T06:16:45.844Z,97.39
2022-12-08T06:19:33.813Z,97.36
2022-12-08T06:22:21.512Z,97.34
2022-12-08T06:25:10.455Z,97.34
2022-12-08T06:27:58.406Z,97.25
2022-12-08T06:30:46.166Z,97.06
2022-12-08T06:33:33.792Z,97.05
2022-12-08T06:36:25.992Z,96.98
2022-12-08T06:39:13.959Z,96.85
2022-12-08T06:42:19.965Z,96.72
2022-12-08T06:45:09.489Z,96.53
2022-12-08T06:47:57.165Z,96.37
2022-12-08T06:50:45.604Z,96.42
2022-12-08T06:53:33.262Z,96.25
2022-12-08T06:56:22.484Z,96.14
2022-12-08T06:59:10.486Z,96.40
2022-12-08T07:01:58.548Z,96.41
2022-12-08T07:04:46.536Z,96.43
2022-12-08T07:07:34.217Z,96.14
2022-12-08T07:10:21.950Z,96.21
2022-12-08T07:13:09.482Z,95.98
2022-12-08T07:15:57.278Z,95.92
2022-12-08T07:18:45.114Z,95.71
2022-12-08T07:21:33.019Z,95.18
2022-12-08T07:24:20.713Z,94.34
2022-12-08T07:27:08.615Z,93.97
2022-12-08T07:29:56.386Z,93.37
2022-12-08T07:32:44.052Z,93.51
2022-12-08T07:35:34.715Z,93.05
2022-12-08T07:38:25.348Z,92.37
2022-12-08T07:41:19.262Z,91.93
2022-12-08T07:44:06.936Z,92.44
2022-12-08T07:46:54.526Z,91.87
2022-12-08T07:49:42.320Z,91.57
2022-12-08T07:52:29.885Z,91.34
2022-12-08T07:55:17.933Z,91.36
2022-12-08T07:58:06.505Z,90.92
2022-12-08T08:00:54.616Z,90.28
2022-12-08T08:03:42.450Z,89.71
2022-12-08T08:06:32.273Z,90.12
2022-12-08T08:09:20.087Z,89.53
2022-12-08T08:12:30.242Z,89.07
2022-12-08T08:15:17.944Z,88.17
2022-12-08T08:18:05.906Z,87.66
2022-12-08T08:20:53.520Z,86.14
2022-12-08T08:23:41.316Z,86.18
2022-12-08T08:26:28.879Z,86.40
2022-12-08T08:29:16.475Z,86.28
2022-12-08T08:32:04.564Z,86.30
2022-12-08T08:34:52.564Z,86.79
2022-12-08T08:37:43.154Z,86.96
2022-12-08T08:40:35.593Z,86.77
2022-12-08T08:43:32.926Z,87.00
2022-12-08T08:46:25.407Z,87.47
2022-12-08T08:49:13.497Z,87.45
2022-12-08T08:52:01.303Z,87.03
2022-12-08T08:54:49.144Z,87.02
2022-12-08T08:57:37.025Z,87.07
2022-12-08T09:00:24.800Z,86.81
2022-12-08T09:03:13.838Z,86.81
2022-12-08T09:06:01.931Z,86.39
2022-12-08T09:08:50.142Z,85.81
2022-12-08T09:11:38.368Z,85.73
2022-12-08T09:14:26.191Z,85.30
2022-12-08T09:17:14.043Z,85.91
2022-12-08T09:20:02.383Z,86.27
2022-12-08T09:22:50.193Z,86.58
2022-12-08T09:25:37.645Z,86.71
2022-12-08T09:28:25.258Z,87.07
2022-12-08T09:31:14.655Z,87.35
2022-12-08T09:34:04.663Z,87.37
2022-12-08T09:36:52.396Z,87.04
2022-12-08T09:39:40.107Z,86.92
2022-12-08T09:43:11.282Z,86.94
2022-12-08T09:45:59.468Z,85.64
2022-12-08T09:48:57.383Z,85.73
2022-12-08T09:51:48.553Z,85.47
2022-12-08T09:54:36.219Z,85.79
2022-12-08T09:57:25.031Z,85.55
2022-12-08T10:00:14.481Z,85.23
2022-12-08T10:03:02.111Z,83.18
2022-12-08T10:06:21.909Z,82.51
2022-12-08T10:09:22.621Z,82.40
2022-12-08T10:12:19.717Z,83.09
2022-12-08T10:15:32.347Z,82.47
2022-12-08T10:18:33.601Z,82.10
2022-12-08T10:21:26.074Z,80.47
2022-12-08T10:24:39.598Z,79.65
2022-12-08T10:27:28.286Z,79.12
2022-12-08T10:30:19.349Z,77.06
2022-12-08T10:33:14.644Z,76.15
2022-12-08T10:36:04.928Z,77.22
2022-12-08T10:38:52.751Z,78.24
2022-12-08T10:41:40.602Z,79.37
2022-12-08T10:44:28.917Z,79.97
2022-12-08T10:47:20.482Z,79.92
2022-12-08T10:50:55.703Z,80.00
2022-12-08T10:53:46.972Z,79.59
2022-12-08T10:56:34.833Z,79.21
2022-12-08T10:59:25.689Z,78.78
2022-12-08T11:02:20.856Z,79.22
2022-12-08T11:05:16.706Z,80.12
2022-12-08T11:08:06.083Z,80.50
2022-12-08T11:10:53.745Z,80.14
2022-12-08T11:13:42.424Z,79.90
2022-12-08T11:16:30.150Z,80.14
2022-12-08T11:19:20.266Z,79.79
2022-12-08T11:22:53.069Z,80.11
2022-12-08T11:25:40.994Z,80.56
2022-12-08T11:28:29.327Z,80.79
2022-12-08T11:31:44.493Z,80.36
2022-12-08T11:34:45.391Z,79.59
2022-12-08T11:37:41.126Z,79.24
2022-12-08T11:40:37.492Z,79.65
2022-12-08T11:43:55.789Z,79.80
2022-12-08T11:47:10.873Z,79.88
2022-12-08T11:50:19.554Z,79.84
2022-12-08T11:53:18.765Z,80.37
2022-12-08T11:56:18.180Z,80.89
2022-12-08T11:59:34.813Z,81.51
2022-12-08T12:02:28.967Z,81.17
2022-12-08T12:06:08.663Z,81.44
2022-12-08T12:09:17.917Z,81.35
2022-12-08T12:12:16.791Z,81.63
2022-12-08T12:15:51.673Z,81.05
2022-12-08T12:18:52.078Z,81.56
2022-12-08T12:21:45.620Z,82.53
2022-12-08T12:24:38.253Z,83.28
2022-12-08T12:27:36.830Z,83.56
2022-12-08T12:30:28.028Z,84.45
2022-12-08T12:33:17.945Z,84.77
2022-12-08T12:36:09.299Z,85.18
2022-12-08T12:39:04.319Z,85.31
2022-12-08T12:42:01.910Z,85.66
2022-12-08T12:45:12.469Z,85.81
2022-12-08T12:48:00.217Z,85.44
2022-12-08T12:50:50.686Z,85.51
2022-12-08T12:53:38.258Z,85.59
2022-12-08T12:57:10.486Z,86.06
2022-12-08T13:00:01.091Z,86.60
2022-12-08T13:02:50.844Z,87.26
2022-12-08T13:05:53.053Z,87.41
2022-12-08T13:08:51.105Z,87.67
2022-12-08T13:11:56.107Z,87.68
2022-12-08T13:14:51.337Z,88.17
2022-12-08T13:17:45.182Z,88.44
2022-12-08T13:20:45.902Z,88.57
2022-12-08T13:23:36.836Z,88.74
2022-12-08T13:26:27.120Z,88.96
2022-12-08T13:29:26.207Z,89.06
2022-12-08T13:32:13.890Z,89.41
2022-12-08T13:35:04.366Z,89.54
2022-12-08T13:37:55.167Z,89.80
2022-12-08T13:40:44.820Z,89.68
2022-12-08T13:47:33.306Z,90.04
2022-12-08T13:57:10.804Z,90.37
2022-12-08T14:00:14.821Z,90.83
2022-12-08T14:03:02.522Z,91.14
2022-12-08T14:06:17.897Z,90.97
2022-12-08T14:09:08.706Z,91.09
2022-12-08T14:12:20.895Z,91.16
2022-12-08T14:15:13.876Z,91.50
2022-12-08T14:18:01.825Z,91.49
2022-12-08T14:21:20.276Z,91.86
2022-12-08T14:24:11.335Z,91.75
2022-12-08T14:27:05.622Z,91.79
2022-12-08T14:30:00.153Z,92.10
2022-12-08T14:32:54.616Z,92.21
2022-12-08T14:35:42.966Z,92.43
2022-12-08T14:38:30.648Z,92.68
2022-12-08T14:41:27.179Z,93.06
2022-12-08T14:44:24.713Z,92.81
2022-12-08T14:47:21.094Z,92.70
2022-12-08T14:50:59.983Z,93.32
2022-12-08T14:54:15.448Z,92.92
2022-12-08T14:57:03.742Z,92.64
2022-12-08T14:59:51.785Z,92.69
2022-12-08T15:02:46.751Z,92.81
2022-12-08T15:05:34.523Z,92.87
2022-12-08T15:08:22.695Z,93.06
2022-12-08T15:11:32.289Z,93.38
2022-12-08T15:14:35.265Z,93.32
2022-12-08T15:17:42.828Z,93.73
2022-12-08T15:20:44.297Z,93.71
2022-12-08T15:23:42.663Z,93.61
2022-12-08T15:26:39.193Z,93.77
2022-12-08T15:29:29.525Z,93.87
2022-12-08T15:32:22.989Z,93.69
2022-12-08T15:35:16.634Z,94.03
2022-12-08T15:38:05.826Z,93.83
2022-12-08T15:40:54.508Z,93.69
2022-12-08T15:43:42.570Z,93.51
2022-12-08T15:46:30.578Z,93.62
2022-12-08T15:49:23.144Z,93.44
2022-12-08T15:52:24.328Z,93.26
2022-12-08T15:55:14.715Z,93.19
2022-12-08T15:58:52.578Z,93.36
2022-12-08T16:01:10.822Z,93.41
2022-12-08T16:07:21.460Z,93.63
2022-12-08T16:11:00.704Z,93.64
2022-12-08T16:14:19.877Z,93.99
2022-12-08T16:17:00.286Z,93.95
2022-12-08T16:19:47.766Z,94.14
2022-12-08T16:26:16.443Z,94.31
2022-12-08T16:28:54.504Z,94.29
2022-12-08T16:31:43.118Z,94.61
2022-12-08T16:34:30.916Z,94.74
2022-12-08T16:37:22.012Z,95.00
2022-12-08T16:40:12.402Z,94.97
2022-12-08T16:43:00.400Z,94.95
2022-12-08T16:45:47.832Z,95.09
2022-12-08T16:48:35.958Z,95.21
2022-12-08T16:51:27.060Z,95.18
2022-12-08T16:54:46.816Z,95.80
2022-12-08T16:57:40.138Z,95.65
2022-12-08T17:00:30.970Z,95.84
2022-12-08T17:03:19.026Z,95.59
2022-12-08T17:06:16.905Z,95.71
2022-12-08T17:09:04.996Z,95.53
2022-12-08T17:11:52.933Z,95.55
2022-12-08T17:14:40.760Z,95.28
2022-12-08T17:17:28.821Z,95.23
2022-12-08T17:20:27.514Z,95.57
2022-12-08T17:23:15.291Z,95.36
2022-12-08T17:26:04.113Z,95.38
2022-12-08T17:29:00.636Z,95.47
2022-12-08T17:31:49.531Z,95.69
2022-12-08T17:34:37.783Z,95.33
2022-12-08T17:37:26.359Z,95.69
2022-12-08T17:40:14.136Z,95.84
2022-12-08T17:43:02.217Z,96.13
2022-12-08T17:45:50.249Z,95.71
2022-12-08T17:48:38.019Z,95.76
2022-12-08T17:51:25.721Z,95.54
2022-12-08T17:54:15.728Z,95.50
2022-12-08T17:57:08.607Z,95.37
2022-12-08T18:00:12.843Z,95.38
2022-12-08T18:03:04.938Z,96.12
2022-12-08T18:05:57.784Z,95.93
2022-12-08T18:08:53.917Z,96.08
2022-12-08T18:11:46.589Z,95.90
2022-12-08T18:14:38.782Z,95.70
2022-12-08T18:17:26.622Z,95.75
2022-12-08T18:20:15.708Z,95.71
2022-12-08T18:23:07.527Z,95.54
2022-12-08T18:25:55.393Z,95.35
2022-12-08T18:28:43.597Z,95.46
2022-12-08T18:31:31.711Z,95.49
2022-12-08T18:34:22.358Z,95.52
2022-12-08T18:37:12.600Z,95.55
2022-12-08T18:40:05.930Z,95.32
2022-12-08T18:42:59.012Z,95.63
2022-12-08T18:46:17.558Z,95.56
2022-12-08T18:49:13.684Z,95.77
2022-12-08T18:52:01.596Z,95.48
2022-12-08T18:55:09.065Z,95.22
2022-12-08T18:58:24.493Z,95.64
2022-12-08T19:01:17.833Z,95.46
2022-12-08T19:07:30.775Z,95.45
2022-12-08T19:10:34.211Z,95.20
2022-12-08T19:13:35.059Z,95.28
2022-12-08T19:16:32.389Z,95.45
2022-12-08T19:19:21.601Z,95.35
2022-12-08T19:22:09.588Z,95.71
2022-12-08T19:24:57.036Z,96.05
2022-12-08T19:27:45.789Z,95.93
2022-12-08T19:30:33.746Z,95.97
2022-12-08T19:33:21.778Z,95.81
2022-12-08T19:36:15.471Z,95.45
2022-12-08T19:39:23.640Z,95.19
2022-12-08T19:42:39.150Z,94.98
2022-12-08T19:45:27.753Z,94.78
2022-12-08T19:48:15.817Z,94.56
2022-12-08T19:51:04.675Z,94.84
2022-12-08T19:53:52.824Z,94.70
2022-12-08T19:56:41.092Z,95.13
2022-12-08T19:59:30.393Z,95.45
2022-12-08T20:02:18.786Z,95.49
2022-12-08T20:05:08.641Z,95.57
2022-12-08T20:07:57.177Z,95.70
2022-12-08T20:10:45.490Z,95.86
2022-12-08T20:13:46.023Z,96.06
2022-12-08T20:16:34.868Z,95.90
2022-12-08T20:19:22.661Z,95.99
2022-12-08T20:22:10.468Z,96.02
2022-12-08T20:25:00.890Z,96.21
2022-12-08T20:27:48.917Z,96.79
2022-12-08T20:31:17.857Z,96.98
2022-12-08T20:34:00.883Z,97.22
2022-12-08T20:36:48.932Z,97.66
2022-12-08T20:39:36.948Z,97.46
2022-12-08T20:42:28.309Z,97.40
2022-12-08T20:45:16.374Z,97.35
2022-12-08T20:48:07.341Z,97.67
2022-12-08T20:50:55.373Z,98.43
2022-12-08T20:53:55.047Z,99.18
2022-12-08T20:56:58.511Z,99.81
2022-12-08T20:59:46.342Z,99.90
2022-12-08T21:02:34.207Z,100.00
2022-12-08T21:05:22.234Z,99.87
2022-12-08T21:08:10.164Z,99.92
2022-12-08T21:11:01.702Z,99.92
2022-12-08T21:13:49.460Z,99.69
2022-12-08T21:16:37.528Z,99.94
2022-12-08T21:19:25.287Z,99.81
2022-12-08T21:22:14.347Z,99.88
2022-12-08T21:25:02.318Z,99.86
2022-12-08T21:27:50.760Z,99.81
2022-12-08T21:30:40.782Z,99.92
2022-12-08T21:33:32.197Z,100.00
2022-12-08T21:36:24.291Z,99.91
2022-12-08T21:39:13.436Z,99.95
2022-12-08T21:42:34.392Z,99.65
2022-12-08T21:45:25.126Z,99.89
2022-12-08T21:48:13.361Z,99.36
2022-12-08T21:51:05.807Z,99.47
2022-12-08T21:55:07.534Z,99.59
2022-12-08T21:58:03.697Z,98.92
2022-12-08T22:00:57.583Z,98.74
2022-12-08T22:03:45.479Z,98.94
2022-12-08T22:06:33.386Z,99.22
2022-12-08T22:09:21.683Z,98.97
2022-12-08T22:12:11.868Z,98.72
2022-12-08T22:15:00.195Z,98.87
2022-12-08T22:17:48.165Z,98.49
2022-12-08T22:20:40.865Z,98.19
2022-12-08T22:23:31.257Z,98.33
2022-12-08T22:26:19.305Z,97.96
2022-12-08T22:29:07.232Z,98.47
2022-12-08T22:31:55.358Z,98.10
2022-12-08T22:34:43.108Z,98.15
2022-12-08T22:37:30.529Z,97.84
2022-12-08T22:40:18.599Z,98.12
2022-12-08T22:43:06.190Z,98.27
2022-12-08T22:45:53.736Z,97.74
2022-12-08T22:48:42.244Z,97.66
2022-12-08T22:51:30.350Z,97.82
2022-12-08T22:54:19.055Z,97.84
2022-12-08T22:57:06.792Z,97.34
2022-12-08T22:59:54.391Z,97.60
2022-12-08T23:02:49.336Z,98.11
2022-12-08T23:05:41.623Z,97.40
2022-12-08T23:08:29.431Z,97.90
2022-12-08T23:11:18.515Z,97.95
2022-12-08T23:14:06.075Z,98.32
2022-12-08T23:16:53.797Z,98.51
2022-12-08T23:19:41.493Z,98.15
2022-12-08T23:22:46.838Z,97.81
2022-12-08T23:25:52.285Z,97.84
2022-12-08T23:28:39.865Z,97.48
2022-12-08T23:31:28.070Z,97.72
2022-12-08T23:34:15.872Z,97.65
2022-12-08T23:37:03.146Z,98.00
2022-12-08T23:39:51.212Z,98.32
2022-12-08T23:42:38.946Z,98.41
2022-12-08T23:45:26.929Z,98.16
2022-12-08T23:48:14.523Z,98.43
2022-12-08T23:51:01.985Z,98.30
2022-12-08T23:53:50.028Z,97.95
2022-12-08T23:56:37.456Z,98.26
2022-12-08T23:59:24.874Z,97.80
